sensor_id;sensor_type;location;lat;lon;timestamp;temperature;humidity
4215;DHT22;2121;48.062;7.850;2022-10-31T00:00:52;9.90;99.90
4215;DHT22;2121;48.062;7.850;2022-10-31T00:03:18;9.90;99.90
4215;DHT22;2121;48.062;7.850;2022-10-31T00:05:47;10.00;99.90
4215;DHT22;2121;48.062;7.850;2022-10-31T00:08:14;10.00;99.90
4215;DHT22;2121;48.062;7.850;2022-10-31T00:10:41;10.00;99.90
4215;DHT22;2121;48.062;7.850;2022-10-31T00:13:08;10.00;99.90
4215;DHT22;2121;48.062;7.850;2022-10-31T00:15:36;10.00;99.90
4215;DHT22;2121;48.062;7.850;2022-10-31T00:18:03;10.00;99.90
4215;DHT22;2121;48.062;7.850;2022-10-31T00:20:30;10.00;99.90
4215;DHT22;2121;48.062;7.850;2022-10-31T00:23:00;10.10;99.90
4215;DHT22;2121;48.062;7.850;2022-10-31T00:25:28;10.00;99.90
4215;DHT22;2121;48.062;7.850;2022-10-31T00:27:55;10.10;99.90
4215;DHT22;2121;48.062;7.850;2022-10-31T00:30:21;10.00;99.90
4215;DHT22;2121;48.062;7.850;2022-10-31T00:32:46;10.00;99.90
4215;DHT22;2121;48.062;7.850;2022-10-31T00:35:12;10.00;99.90
4215;DHT22;2121;48.062;7.850;2022-10-31T00:37:38;10.00;99.90
4215;DHT22;2121;48.062;7.850;2022-10-31T00:40:04;9.90;99.90
4215;DHT22;2121;48.062;7.850;2022-10-31T00:42:30;9.80;99.90
4215;DHT22;2121;48.062;7.850;2022-10-31T00:44:56;9.70;99.90
4215;DHT22;2121;48.062;7.850;2022-10-31T00:47:21;9.70;99.90
4215;DHT22;2121;48.062;7.850;2022-10-31T00:49:47;9.70;99.90
4215;DHT22;2121;48.062;7.850;2022-10-31T00:52:13;9.70;99.90
4215;DHT22;2121;48.062;7.850;2022-10-31T00:54:38;9.60;99.90
4215;DHT22;2121;48.062;7.850;2022-10-31T00:57:04;9.70;99.90
4215;DHT22;2121;48.062;7.850;2022-10-31T00:59:30;9.70;99.90
4215;DHT22;2121;48.062;7.850;2022-10-31T01:01:55;9.60;99.90
4215;DHT22;2121;48.062;7.850;2022-10-31T01:04:21;9.60;99.90
4215;DHT22;2121;48.062;7.850;2022-10-31T01:06:47;9.60;99.90
4215;DHT22;2121;48.062;7.850;2022-10-31T01:09:12;9.50;99.90
4215;DHT22;2121;48.062;7.850;2022-10-31T01:11:38;9.50;99.90
4215;DHT22;2121;48.062;7.850;2022-10-31T01:14:04;9.40;99.90
4215;DHT22;2121;48.062;7.850;2022-10-31T01:16:29;9.40;99.90
4215;DHT22;2121;48.062;7.850;2022-10-31T01:18:55;9.30;99.90
4215;DHT22;2121;48.062;7.850;2022-10-31T01:21:26;9.20;99.90
4215;DHT22;2121;48.062;7.850;2022-10-31T01:23:54;9.30;99.90
4215;DHT22;2121;48.062;7.850;2022-10-31T01:26:25;9.20;99.90
4215;DHT22;2121;48.062;7.850;2022-10-31T01:28:55;9.20;99.90
4215;DHT22;2121;48.062;7.850;2022-10-31T01:31:25;9.20;99.90
4215;DHT22;2121;48.062;7.850;2022-10-31T01:33:52;9.20;99.90
4215;DHT22;2121;48.062;7.850;2022-10-31T01:38:53;9.20;99.90
4215;DHT22;2121;48.062;7.850;2022-10-31T01:41:23;9.30;99.90
4215;DHT22;2121;48.062;7.850;2022-10-31T01:44:03;9.30;99.90
4215;DHT22;2121;48.062;7.850;2022-10-31T01:46:52;9.40;99.90
4215;DHT22;2121;48.062;7.850;2022-10-31T01:49:40;9.30;99.90
4215;DHT22;2121;48.062;7.850;2022-10-31T01:52:36;9.30;99.90
4215;DHT22;2121;48.062;7.850;2022-10-31T01:57:34;9.20;99.90
4215;DHT22;2121;48.062;7.850;2022-10-31T02:00:04;9.20;99.90
4215;DHT22;2121;48.062;7.850;2022-10-31T02:02:32;9.20;99.90
4215;DHT22;2121;48.062;7.850;2022-10-31T02:05:00;9.20;99.90
4215;DHT22;2121;48.062;7.850;2022-10-31T02:10:25;9.10;99.90
4215;DHT22;2121;48.062;7.850;2022-10-31T02:12:53;9.10;99.90
4215;DHT22;2121;48.062;7.850;2022-10-31T02:15:20;9.20;99.90
4215;DHT22;2121;48.062;7.850;2022-10-31T02:17:46;9.20;99.90
4215;DHT22;2121;48.062;7.850;2022-10-31T02:20:19;9.10;99.90
4215;DHT22;2121;48.062;7.850;2022-10-31T02:31:35;9.20;99.90
4215;DHT22;2121;48.062;7.850;2022-10-31T02:34:09;9.20;99.90
4215;DHT22;2121;48.062;7.850;2022-10-31T02:36:50;9.20;99.90
4215;DHT22;2121;48.062;7.850;2022-10-31T02:39:26;9.10;99.90
4215;DHT22;2121;48.062;7.850;2022-10-31T02:44:48;9.10;99.90
4215;DHT22;2121;48.062;7.850;2022-10-31T02:47:18;9.10;99.90
4215;DHT22;2121;48.062;7.850;2022-10-31T02:50:49;9.10;99.90
4215;DHT22;2121;48.062;7.850;2022-10-31T02:52:51;9.10;99.90
4215;DHT22;2121;48.062;7.850;2022-10-31T02:57:54;9.10;99.90
4215;DHT22;2121;48.062;7.850;2022-10-31T03:07:20;9.00;99.90
4215;DHT22;2121;48.062;7.850;2022-10-31T03:10:18;9.00;99.90
4215;DHT22;2121;48.062;7.850;2022-10-31T03:19:32;8.80;99.90
4215;DHT22;2121;48.062;7.850;2022-10-31T03:22:29;8.90;99.90
4215;DHT22;2121;48.062;7.850;2022-10-31T03:24:58;8.90;99.90
4215;DHT22;2121;48.062;7.850;2022-10-31T03:27:27;8.90;99.90
4215;DHT22;2121;48.062;7.850;2022-10-31T03:29:57;8.80;99.90
4215;DHT22;2121;48.062;7.850;2022-10-31T03:32:36;8.80;99.90
4215;DHT22;2121;48.062;7.850;2022-10-31T03:35:20;8.70;99.90
4215;DHT22;2121;48.062;7.850;2022-10-31T03:37:49;8.60;99.90
4215;DHT22;2121;48.062;7.850;2022-10-31T03:40:19;8.50;99.90
4215;DHT22;2121;48.062;7.850;2022-10-31T03:42:59;8.50;99.90
4215;DHT22;2121;48.062;7.850;2022-10-31T03:45:30;8.60;99.90
4215;DHT22;2121;48.062;7.850;2022-10-31T03:47:57;8.60;99.90
4215;DHT22;2121;48.062;7.850;2022-10-31T03:50:30;8.70;99.90
4215;DHT22;2121;48.062;7.850;2022-10-31T03:53:41;8.60;99.90
4215;DHT22;2121;48.062;7.850;2022-10-31T03:56:22;8.70;99.90
4215;DHT22;2121;48.062;7.850;2022-10-31T03:59:20;8.70;99.90
4215;DHT22;2121;48.062;7.850;2022-10-31T04:01:49;8.80;99.90
4215;DHT22;2121;48.062;7.850;2022-10-31T04:04:19;8.70;99.90
4215;DHT22;2121;48.062;7.850;2022-10-31T04:06:46;8.70;99.90
4215;DHT22;2121;48.062;7.850;2022-10-31T04:09:13;8.80;99.90
4215;DHT22;2121;48.062;7.850;2022-10-31T04:11:50;8.80;99.90
4215;DHT22;2121;48.062;7.850;2022-10-31T04:14:17;8.80;99.90
4215;DHT22;2121;48.062;7.850;2022-10-31T04:16:43;8.90;99.90
4215;DHT22;2121;48.062;7.850;2022-10-31T04:19:11;8.70;99.90
4215;DHT22;2121;48.062;7.850;2022-10-31T04:21:37;8.60;99.90
4215;DHT22;2121;48.062;7.850;2022-10-31T04:24:03;8.50;99.90
4215;DHT22;2121;48.062;7.850;2022-10-31T04:26:29;8.50;99.90
4215;DHT22;2121;48.062;7.850;2022-10-31T04:28:54;8.50;99.90
4215;DHT22;2121;48.062;7.850;2022-10-31T04:31:20;8.50;99.90
4215;DHT22;2121;48.062;7.850;2022-10-31T04:33:46;8.50;99.90
4215;DHT22;2121;48.062;7.850;2022-10-31T04:36:11;8.50;99.90
4215;DHT22;2121;48.062;7.850;2022-10-31T04:38:37;8.60;99.90
4215;DHT22;2121;48.062;7.850;2022-10-31T04:41:03;8.60;99.90
4215;DHT22;2121;48.062;7.850;2022-10-31T04:43:29;8.60;99.90
4215;DHT22;2121;48.062;7.850;2022-10-31T04:45:54;8.50;99.90
4215;DHT22;2121;48.062;7.850;2022-10-31T04:48:20;8.50;99.90
4215;DHT22;2121;48.062;7.850;2022-10-31T04:50:46;8.50;99.90
4215;DHT22;2121;48.062;7.850;2022-10-31T04:53:11;8.50;99.90
4215;DHT22;2121;48.062;7.850;2022-10-31T04:55:37;8.50;99.90
4215;DHT22;2121;48.062;7.850;2022-10-31T04:58:03;8.60;99.90
4215;DHT22;2121;48.062;7.850;2022-10-31T05:00:29;8.60;99.90
4215;DHT22;2121;48.062;7.850;2022-10-31T05:02:57;8.50;99.90
4215;DHT22;2121;48.062;7.850;2022-10-31T05:05:26;8.50;99.90
4215;DHT22;2121;48.062;7.850;2022-10-31T05:07:54;8.50;99.90
4215;DHT22;2121;48.062;7.850;2022-10-31T05:10:25;8.50;99.90
4215;DHT22;2121;48.062;7.850;2022-10-31T05:12:57;8.40;99.90
4215;DHT22;2121;48.062;7.850;2022-10-31T05:15:26;8.40;99.90
4215;DHT22;2121;48.062;7.850;2022-10-31T05:17:53;8.30;99.90
4215;DHT22;2121;48.062;7.850;2022-10-31T05:20:22;8.30;99.90
4215;DHT22;2121;48.062;7.850;2022-10-31T05:22:51;8.30;99.90
4215;DHT22;2121;48.062;7.850;2022-10-31T05:25:19;8.30;99.90
4215;DHT22;2121;48.062;7.850;2022-10-31T05:27:48;8.30;99.90
4215;DHT22;2121;48.062;7.850;2022-10-31T05:30:18;8.30;99.90
4215;DHT22;2121;48.062;7.850;2022-10-31T05:32:49;8.40;99.90
4215;DHT22;2121;48.062;7.850;2022-10-31T05:35:18;8.30;99.90
4215;DHT22;2121;48.062;7.850;2022-10-31T05:37:49;8.30;99.90
4215;DHT22;2121;48.062;7.850;2022-10-31T05:40:16;8.30;99.90
4215;DHT22;2121;48.062;7.850;2022-10-31T05:42:44;8.40;99.90
4215;DHT22;2121;48.062;7.850;2022-10-31T05:45:14;8.40;99.90
4215;DHT22;2121;48.062;7.850;2022-10-31T05:47:42;8.30;99.90
4215;DHT22;2121;48.062;7.850;2022-10-31T05:50:09;8.30;99.90
4215;DHT22;2121;48.062;7.850;2022-10-31T05:52:35;8.30;99.90
4215;DHT22;2121;48.062;7.850;2022-10-31T05:55:01;8.30;99.90
4215;DHT22;2121;48.062;7.850;2022-10-31T05:57:29;8.30;99.90
4215;DHT22;2121;48.062;7.850;2022-10-31T05:59:59;8.30;99.90
4215;DHT22;2121;48.062;7.850;2022-10-31T06:02:25;8.30;99.90
4215;DHT22;2121;48.062;7.850;2022-10-31T06:04:52;8.30;99.90
4215;DHT22;2121;48.062;7.850;2022-10-31T06:07:18;8.30;99.90
4215;DHT22;2121;48.062;7.850;2022-10-31T06:09:43;8.30;99.90
4215;DHT22;2121;48.062;7.850;2022-10-31T06:12:09;8.40;99.90
4215;DHT22;2121;48.062;7.850;2022-10-31T06:14:35;8.50;99.90
4215;DHT22;2121;48.062;7.850;2022-10-31T06:17:00;8.50;99.90
4215;DHT22;2121;48.062;7.850;2022-10-31T06:19:26;8.60;99.90
4215;DHT22;2121;48.062;7.850;2022-10-31T06:21:52;8.60;99.90
4215;DHT22;2121;48.062;7.850;2022-10-31T06:24:17;8.70;99.90
4215;DHT22;2121;48.062;7.850;2022-10-31T06:26:43;8.70;99.90
4215;DHT22;2121;48.062;7.850;2022-10-31T06:29:09;8.80;99.90
4215;DHT22;2121;48.062;7.850;2022-10-31T06:31:34;8.90;99.90
4215;DHT22;2121;48.062;7.850;2022-10-31T06:34:00;8.90;99.90
4215;DHT22;2121;48.062;7.850;2022-10-31T06:36:26;8.90;99.90
4215;DHT22;2121;48.062;7.850;2022-10-31T06:38:51;9.00;99.90
4215;DHT22;2121;48.062;7.850;2022-10-31T06:41:17;9.00;99.90
4215;DHT22;2121;48.062;7.850;2022-10-31T06:43:46;9.10;99.90
4215;DHT22;2121;48.062;7.850;2022-10-31T06:46:12;9.10;99.90
4215;DHT22;2121;48.062;7.850;2022-10-31T06:48:40;9.20;99.90
4215;DHT22;2121;48.062;7.850;2022-10-31T06:51:07;9.20;99.90
4215;DHT22;2121;48.062;7.850;2022-10-31T06:53:33;9.40;99.90
4215;DHT22;2121;48.062;7.850;2022-10-31T06:55:59;9.40;99.90
4215;DHT22;2121;48.062;7.850;2022-10-31T06:58:25;9.40;99.90
4215;DHT22;2121;48.062;7.850;2022-10-31T07:00:50;9.50;99.90
4215;DHT22;2121;48.062;7.850;2022-10-31T07:03:17;9.60;99.90
4215;DHT22;2121;48.062;7.850;2022-10-31T07:05:43;9.70;99.90
4215;DHT22;2121;48.062;7.850;2022-10-31T07:08:12;9.80;99.90
4215;DHT22;2121;48.062;7.850;2022-10-31T07:10:40;10.00;99.90
4215;DHT22;2121;48.062;7.850;2022-10-31T07:13:11;10.20;99.90
4215;DHT22;2121;48.062;7.850;2022-10-31T07:15:39;10.40;99.90
4215;DHT22;2121;48.062;7.850;2022-10-31T07:18:07;10.60;99.90
4215;DHT22;2121;48.062;7.850;2022-10-31T07:20:35;10.70;99.90
4215;DHT22;2121;48.062;7.850;2022-10-31T07:23:01;10.60;99.90
4215;DHT22;2121;48.062;7.850;2022-10-31T07:25:26;10.80;99.90
4215;DHT22;2121;48.062;7.850;2022-10-31T07:27:52;10.80;99.90
4215;DHT22;2121;48.062;7.850;2022-10-31T07:30:18;10.90;99.90
4215;DHT22;2121;48.062;7.850;2022-10-31T07:32:49;11.10;99.90
4215;DHT22;2121;48.062;7.850;2022-10-31T07:35:18;11.20;99.90
4215;DHT22;2121;48.062;7.850;2022-10-31T07:37:48;11.30;99.90
4215;DHT22;2121;48.062;7.850;2022-10-31T07:40:15;11.40;99.90
4215;DHT22;2121;48.062;7.850;2022-10-31T07:42:43;11.50;99.90
4215;DHT22;2121;48.062;7.850;2022-10-31T07:45:13;11.70;99.90
4215;DHT22;2121;48.062;7.850;2022-10-31T07:47:48;11.80;99.90
4215;DHT22;2121;48.062;7.850;2022-10-31T07:50:26;12.10;99.90
4215;DHT22;2121;48.062;7.850;2022-10-31T07:53:04;12.30;99.90
4215;DHT22;2121;48.062;7.850;2022-10-31T07:55:31;12.50;99.90
4215;DHT22;2121;48.062;7.850;2022-10-31T07:57:58;12.60;99.90
4215;DHT22;2121;48.062;7.850;2022-10-31T08:00:28;12.70;99.90
4215;DHT22;2121;48.062;7.850;2022-10-31T08:03:15;12.90;99.90
4215;DHT22;2121;48.062;7.850;2022-10-31T08:05:42;13.10;99.90
4215;DHT22;2121;48.062;7.850;2022-10-31T08:08:10;13.20;99.90
4215;DHT22;2121;48.062;7.850;2022-10-31T08:10:36;13.30;99.90
4215;DHT22;2121;48.062;7.850;2022-10-31T08:13:07;13.40;99.90
4215;DHT22;2121;48.062;7.850;2022-10-31T08:15:34;13.60;99.90
4215;DHT22;2121;48.062;7.850;2022-10-31T08:18:04;13.90;99.90
4215;DHT22;2121;48.062;7.850;2022-10-31T08:20:30;14.00;99.90
4215;DHT22;2121;48.062;7.850;2022-10-31T08:23:01;14.10;99.90
4215;DHT22;2121;48.062;7.850;2022-10-31T08:25:30;14.30;99.90
4215;DHT22;2121;48.062;7.850;2022-10-31T08:27:57;14.50;99.90
4215;DHT22;2121;48.062;7.850;2022-10-31T08:30:26;14.70;99.90
4215;DHT22;2121;48.062;7.850;2022-10-31T08:33:04;14.80;99.90
4215;DHT22;2121;48.062;7.850;2022-10-31T08:35:33;14.90;99.90
4215;DHT22;2121;48.062;7.850;2022-10-31T08:37:59;15.00;99.90
4215;DHT22;2121;48.062;7.850;2022-10-31T08:40:26;15.20;99.90
4215;DHT22;2121;48.062;7.850;2022-10-31T08:43:00;15.30;99.90
4215;DHT22;2121;48.062;7.850;2022-10-31T08:45:31;15.40;99.90
4215;DHT22;2121;48.062;7.850;2022-10-31T08:48:00;15.50;99.90
4215;DHT22;2121;48.062;7.850;2022-10-31T08:50:28;15.60;99.90
4215;DHT22;2121;48.062;7.850;2022-10-31T08:53:04;15.70;99.90
4215;DHT22;2121;48.062;7.850;2022-10-31T08:55:38;15.70;99.90
4215;DHT22;2121;48.062;7.850;2022-10-31T08:58:06;15.60;99.90
4215;DHT22;2121;48.062;7.850;2022-10-31T09:00:35;15.60;99.90
4215;DHT22;2121;48.062;7.850;2022-10-31T09:03:06;15.80;99.90
4215;DHT22;2121;48.062;7.850;2022-10-31T09:05:35;15.90;99.90
4215;DHT22;2121;48.062;7.850;2022-10-31T09:08:02;16.20;99.90
4215;DHT22;2121;48.062;7.850;2022-10-31T09:10:30;16.40;99.90
4215;DHT22;2121;48.062;7.850;2022-10-31T09:13:10;16.60;99.90
4215;DHT22;2121;48.062;7.850;2022-10-31T09:15:47;16.60;99.90
4215;DHT22;2121;48.062;7.850;2022-10-31T09:18:17;16.60;99.90
4215;DHT22;2121;48.062;7.850;2022-10-31T09:20:46;16.80;99.90
4215;DHT22;2121;48.062;7.850;2022-10-31T09:23:21;17.00;99.90
4215;DHT22;2121;48.062;7.850;2022-10-31T09:25:49;17.10;99.90
4215;DHT22;2121;48.062;7.850;2022-10-31T09:28:18;17.40;99.90
4215;DHT22;2121;48.062;7.850;2022-10-31T09:30:52;17.50;99.90
4215;DHT22;2121;48.062;7.850;2022-10-31T09:33:19;17.70;99.90
4215;DHT22;2121;48.062;7.850;2022-10-31T09:35:45;17.80;99.90
4215;DHT22;2121;48.062;7.850;2022-10-31T09:38:13;17.80;99.90
4215;DHT22;2121;48.062;7.850;2022-10-31T09:40:41;17.60;99.90
4215;DHT22;2121;48.062;7.850;2022-10-31T09:46:03;17.10;99.90
4215;DHT22;2121;48.062;7.850;2022-10-31T09:51:41;17.30;99.90
4215;DHT22;2121;48.062;7.850;2022-10-31T09:54:16;17.10;99.90
4215;DHT22;2121;48.062;7.850;2022-10-31T09:56:45;17.00;99.90
4215;DHT22;2121;48.062;7.850;2022-10-31T09:59:24;16.80;99.90
4215;DHT22;2121;48.062;7.850;2022-10-31T10:02:03;16.60;99.90
4215;DHT22;2121;48.062;7.850;2022-10-31T10:04:56;16.70;99.90
4215;DHT22;2121;48.062;7.850;2022-10-31T10:10:17;16.90;99.90
4215;DHT22;2121;48.062;7.850;2022-10-31T10:15:42;16.90;99.90
4215;DHT22;2121;48.062;7.850;2022-10-31T10:21:09;16.60;99.90
4215;DHT22;2121;48.062;7.850;2022-10-31T10:26:43;17.10;99.90
4215;DHT22;2121;48.062;7.850;2022-10-31T10:32:09;16.80;99.90
4215;DHT22;2121;48.062;7.850;2022-10-31T10:34:45;16.70;99.90
4215;DHT22;2121;48.062;7.850;2022-10-31T10:37:30;16.80;99.90
4215;DHT22;2121;48.062;7.850;2022-10-31T10:40:13;17.10;99.90
4215;DHT22;2121;48.062;7.850;2022-10-31T10:42:50;17.40;99.90
4215;DHT22;2121;48.062;7.850;2022-10-31T10:45:55;17.30;99.90
4215;DHT22;2121;48.062;7.850;2022-10-31T10:49:08;17.30;99.90
4215;DHT22;2121;48.062;7.850;2022-10-31T10:58:06;17.30;99.90
4215;DHT22;2121;48.062;7.850;2022-10-31T11:00:40;17.10;99.90
4215;DHT22;2121;48.062;7.850;2022-10-31T11:03:08;17.10;99.90
4215;DHT22;2121;48.062;7.850;2022-10-31T11:13:31;17.10;99.90
4215;DHT22;2121;48.062;7.850;2022-10-31T11:16:04;17.50;99.90
4215;DHT22;2121;48.062;7.850;2022-10-31T11:18:34;18.00;99.90
4215;DHT22;2121;48.062;7.850;2022-10-31T11:21:04;18.50;99.90
4215;DHT22;2121;48.062;7.850;2022-10-31T11:23:31;18.90;99.90
4215;DHT22;2121;48.062;7.850;2022-10-31T11:26:04;19.10;99.90
4215;DHT22;2121;48.062;7.850;2022-10-31T11:28:32;19.50;99.90
4215;DHT22;2121;48.062;7.850;2022-10-31T11:31:08;19.80;99.90
4215;DHT22;2121;48.062;7.850;2022-10-31T11:33:44;20.10;99.90
4215;DHT22;2121;48.062;7.850;2022-10-31T11:36:27;20.00;99.90
4215;DHT22;2121;48.062;7.850;2022-10-31T11:38:55;20.00;99.90
4215;DHT22;2121;48.062;7.850;2022-10-31T11:41:31;20.40;99.90
4215;DHT22;2121;48.062;7.850;2022-10-31T11:44:11;20.70;99.90
4215;DHT22;2121;48.062;7.850;2022-10-31T11:46:40;21.10;99.90
4215;DHT22;2121;48.062;7.850;2022-10-31T11:51:56;21.90;99.90
4215;DHT22;2121;48.062;7.850;2022-10-31T11:54:29;22.10;99.90
4215;DHT22;2121;48.062;7.850;2022-10-31T12:00:28;22.10;99.90
4215;DHT22;2121;48.062;7.850;2022-10-31T12:05:54;21.80;99.90
4215;DHT22;2121;48.062;7.850;2022-10-31T12:08:25;21.20;99.90
4215;DHT22;2121;48.062;7.850;2022-10-31T12:17:22;20.70;99.90
4215;DHT22;2121;48.062;7.850;2022-10-31T12:28:18;19.90;99.90
4215;DHT22;2121;48.062;7.850;2022-10-31T12:31:43;19.70;99.90
4215;DHT22;2121;48.062;7.850;2022-10-31T12:37:50;19.60;99.90
4215;DHT22;2121;48.062;7.850;2022-10-31T12:43:16;19.50;99.90
4215;DHT22;2121;48.062;7.850;2022-10-31T12:45:59;19.80;99.90
4215;DHT22;2121;48.062;7.850;2022-10-31T12:51:46;21.10;99.90
4215;DHT22;2121;48.062;7.850;2022-10-31T12:57:27;21.70;99.90
4215;DHT22;2121;48.062;7.850;2022-10-31T13:00:18;20.90;99.90
4215;DHT22;2121;48.062;7.850;2022-10-31T13:05:46;20.50;99.90
4215;DHT22;2121;48.062;7.850;2022-10-31T13:08:22;20.30;99.90
4215;DHT22;2121;48.062;7.850;2022-10-31T13:11:12;20.40;99.90
4215;DHT22;2121;48.062;7.850;2022-10-31T13:16:44;20.30;99.90
4215;DHT22;2121;48.062;7.850;2022-10-31T13:19:38;20.20;99.90
4215;DHT22;2121;48.062;7.850;2022-10-31T13:28:03;19.70;99.90
4215;DHT22;2121;48.062;7.850;2022-10-31T13:30:38;19.70;99.90
4215;DHT22;2121;48.062;7.850;2022-10-31T13:33:24;19.70;99.90
4215;DHT22;2121;48.062;7.850;2022-10-31T13:42:03;19.40;99.90
4215;DHT22;2121;48.062;7.850;2022-10-31T13:44:36;19.60;99.90
4215;DHT22;2121;48.062;7.850;2022-10-31T13:47:40;19.40;99.90
4215;DHT22;2121;48.062;7.850;2022-10-31T13:50:28;19.00;99.90
4215;DHT22;2121;48.062;7.850;2022-10-31T13:55:49;19.10;99.90
4215;DHT22;2121;48.062;7.850;2022-10-31T13:58:30;19.40;99.90
4215;DHT22;2121;48.062;7.850;2022-10-31T14:03:29;20.50;99.90
4215;DHT22;2121;48.062;7.850;2022-10-31T14:05:56;20.70;99.90
4215;DHT22;2121;48.062;7.850;2022-10-31T14:08:23;20.80;99.90
4215;DHT22;2121;48.062;7.850;2022-10-31T14:10:51;20.90;99.90
4215;DHT22;2121;48.062;7.850;2022-10-31T14:13:26;21.10;99.90
4215;DHT22;2121;48.062;7.850;2022-10-31T14:15:59;21.30;99.90
4215;DHT22;2121;48.062;7.850;2022-10-31T14:18:41;21.10;99.90
4215;DHT22;2121;48.062;7.850;2022-10-31T14:23:49;20.90;99.90
4215;DHT22;2121;48.062;7.850;2022-10-31T14:31:42;21.50;99.90
4215;DHT22;2121;48.062;7.850;2022-10-31T14:34:43;21.50;99.90
4215;DHT22;2121;48.062;7.850;2022-10-31T14:46:01;21.10;99.90
4215;DHT22;2121;48.062;7.850;2022-10-31T14:51:45;20.30;99.90
4215;DHT22;2121;48.062;7.850;2022-10-31T14:54:27;19.90;99.90
4215;DHT22;2121;48.062;7.850;2022-10-31T14:57:02;19.70;99.90
4215;DHT22;2121;48.062;7.850;2022-10-31T14:59:35;19.40;99.90
4215;DHT22;2121;48.062;7.850;2022-10-31T15:02:20;19.20;99.90
4215;DHT22;2121;48.062;7.850;2022-10-31T15:04:51;19.10;99.90
4215;DHT22;2121;48.062;7.850;2022-10-31T15:07:19;19.10;99.90
4215;DHT22;2121;48.062;7.850;2022-10-31T15:10:02;19.00;99.90
4215;DHT22;2121;48.062;7.850;2022-10-31T15:12:32;18.90;99.90
4215;DHT22;2121;48.062;7.850;2022-10-31T15:15:33;18.70;99.90
4215;DHT22;2121;48.062;7.850;2022-10-31T15:18:00;18.80;99.90
4215;DHT22;2121;48.062;7.850;2022-10-31T15:20:28;18.80;99.90
4215;DHT22;2121;48.062;7.850;2022-10-31T15:22:56;18.60;99.90
4215;DHT22;2121;48.062;7.850;2022-10-31T15:25:24;18.40;99.90
4215;DHT22;2121;48.062;7.850;2022-10-31T15:27:52;18.10;99.90
4215;DHT22;2121;48.062;7.850;2022-10-31T15:30:22;17.90;99.90
4215;DHT22;2121;48.062;7.850;2022-10-31T15:32:49;17.80;99.90
4215;DHT22;2121;48.062;7.850;2022-10-31T15:35:28;17.70;99.90
4215;DHT22;2121;48.062;7.850;2022-10-31T15:37:56;17.70;99.90
4215;DHT22;2121;48.062;7.850;2022-10-31T15:40:25;17.50;99.90
4215;DHT22;2121;48.062;7.850;2022-10-31T15:43:00;17.30;99.90
4215;DHT22;2121;48.062;7.850;2022-10-31T15:45:28;17.20;99.90
4215;DHT22;2121;48.062;7.850;2022-10-31T15:48:00;17.10;99.90
4215;DHT22;2121;48.062;7.850;2022-10-31T15:50:44;17.10;99.90
4215;DHT22;2121;48.062;7.850;2022-10-31T15:53:21;17.00;99.90
4215;DHT22;2121;48.062;7.850;2022-10-31T15:56:01;16.80;99.90
4215;DHT22;2121;48.062;7.850;2022-10-31T15:58:30;16.70;99.90
4215;DHT22;2121;48.062;7.850;2022-10-31T16:01:03;16.60;99.90
4215;DHT22;2121;48.062;7.850;2022-10-31T16:03:32;16.50;99.90
4215;DHT22;2121;48.062;7.850;2022-10-31T16:06:02;16.30;99.90
4215;DHT22;2121;48.062;7.850;2022-10-31T16:13:36;15.80;99.90
4215;DHT22;2121;48.062;7.850;2022-10-31T16:16:16;15.60;99.90
4215;DHT22;2121;48.062;7.850;2022-10-31T16:18:43;15.50;99.90
4215;DHT22;2121;48.062;7.850;2022-10-31T16:21:10;15.30;99.90
4215;DHT22;2121;48.062;7.850;2022-10-31T16:23:37;15.20;99.90
4215;DHT22;2121;48.062;7.850;2022-10-31T16:26:07;15.00;99.90
4215;DHT22;2121;48.062;7.850;2022-10-31T16:28:34;14.80;99.90
4215;DHT22;2121;48.062;7.850;2022-10-31T16:31:12;14.80;99.90
4215;DHT22;2121;48.062;7.850;2022-10-31T16:33:39;14.70;99.90
4215;DHT22;2121;48.062;7.850;2022-10-31T16:38:57;14.60;99.90
4215;DHT22;2121;48.062;7.850;2022-10-31T16:41:23;14.60;99.90
4215;DHT22;2121;48.062;7.850;2022-10-31T16:43:51;14.40;99.90
4215;DHT22;2121;48.062;7.850;2022-10-31T16:46:25;14.30;99.90
4215;DHT22;2121;48.062;7.850;2022-10-31T16:48:52;14.30;99.90
4215;DHT22;2121;48.062;7.850;2022-10-31T16:51:18;14.30;99.90
4215;DHT22;2121;48.062;7.850;2022-10-31T16:53:44;14.30;99.90
4215;DHT22;2121;48.062;7.850;2022-10-31T16:56:36;14.30;99.90
4215;DHT22;2121;48.062;7.850;2022-10-31T16:59:05;14.30;99.90
4215;DHT22;2121;48.062;7.850;2022-10-31T17:01:32;14.10;99.90
4215;DHT22;2121;48.062;7.850;2022-10-31T17:04:00;14.00;99.90
4215;DHT22;2121;48.062;7.850;2022-10-31T17:06:26;14.00;99.90
4215;DHT22;2121;48.062;7.850;2022-10-31T17:08:53;14.00;99.90
4215;DHT22;2121;48.062;7.850;2022-10-31T17:11:22;14.00;99.90
4215;DHT22;2121;48.062;7.850;2022-10-31T17:13:50;14.00;99.90
4215;DHT22;2121;48.062;7.850;2022-10-31T17:16:16;14.00;99.90
4215;DHT22;2121;48.062;7.850;2022-10-31T17:18:42;14.00;99.90
4215;DHT22;2121;48.062;7.850;2022-10-31T17:21:17;14.00;99.90
4215;DHT22;2121;48.062;7.850;2022-10-31T17:23:45;13.80;99.90
4215;DHT22;2121;48.062;7.850;2022-10-31T17:26:11;13.80;99.90
4215;DHT22;2121;48.062;7.850;2022-10-31T17:28:37;13.70;99.90
4215;DHT22;2121;48.062;7.850;2022-10-31T17:31:02;13.60;99.90
4215;DHT22;2121;48.062;7.850;2022-10-31T17:33:28;13.50;99.90
4215;DHT22;2121;48.062;7.850;2022-10-31T17:35:54;13.50;99.90
4215;DHT22;2121;48.062;7.850;2022-10-31T17:38:20;13.50;99.90
4215;DHT22;2121;48.062;7.850;2022-10-31T17:40:45;13.40;99.90
4215;DHT22;2121;48.062;7.850;2022-10-31T17:43:11;13.40;99.90
4215;DHT22;2121;48.062;7.850;2022-10-31T17:45:40;13.40;99.90
4215;DHT22;2121;48.062;7.850;2022-10-31T17:48:09;13.30;99.90
4215;DHT22;2121;48.062;7.850;2022-10-31T17:50:36;13.20;99.90
4215;DHT22;2121;48.062;7.850;2022-10-31T17:53:02;13.00;99.90
4215;DHT22;2121;48.062;7.850;2022-10-31T17:55:28;13.00;99.90
4215;DHT22;2121;48.062;7.850;2022-10-31T17:57:54;12.90;99.90
4215;DHT22;2121;48.062;7.850;2022-10-31T18:00:20;13.00;99.90
4215;DHT22;2121;48.062;7.850;2022-10-31T18:02:48;12.90;99.90
4215;DHT22;2121;48.062;7.850;2022-10-31T18:05:14;12.80;99.90
4215;DHT22;2121;48.062;7.850;2022-10-31T18:07:40;12.80;99.90
4215;DHT22;2121;48.062;7.850;2022-10-31T18:10:06;12.80;99.90
4215;DHT22;2121;48.062;7.850;2022-10-31T18:12:35;12.70;99.90
4215;DHT22;2121;48.062;7.850;2022-10-31T18:15:01;12.50;99.90
4215;DHT22;2121;48.062;7.850;2022-10-31T18:17:26;12.40;99.90
4215;DHT22;2121;48.062;7.850;2022-10-31T18:19:52;12.40;99.90
4215;DHT22;2121;48.062;7.850;2022-10-31T18:22:18;12.40;99.90
4215;DHT22;2121;48.062;7.850;2022-10-31T18:24:43;12.40;99.90
4215;DHT22;2121;48.062;7.850;2022-10-31T18:27:09;12.40;99.90
4215;DHT22;2121;48.062;7.850;2022-10-31T18:29:35;12.30;99.90
4215;DHT22;2121;48.062;7.850;2022-10-31T18:32:00;12.30;99.90
4215;DHT22;2121;48.062;7.850;2022-10-31T18:34:26;12.30;99.90
4215;DHT22;2121;48.062;7.850;2022-10-31T18:36:52;12.20;99.90
4215;DHT22;2121;48.062;7.850;2022-10-31T18:39:18;12.20;99.90
4215;DHT22;2121;48.062;7.850;2022-10-31T18:41:44;12.20;99.90
4215;DHT22;2121;48.062;7.850;2022-10-31T18:44:10;12.20;99.90
4215;DHT22;2121;48.062;7.850;2022-10-31T18:46:36;12.30;99.90
4215;DHT22;2121;48.062;7.850;2022-10-31T18:49:03;12.20;99.90
4215;DHT22;2121;48.062;7.850;2022-10-31T18:51:29;12.10;99.90
4215;DHT22;2121;48.062;7.850;2022-10-31T18:53:57;12.00;99.90
4215;DHT22;2121;48.062;7.850;2022-10-31T18:56:24;11.90;99.90
4215;DHT22;2121;48.062;7.850;2022-10-31T18:58:51;11.80;99.90
4215;DHT22;2121;48.062;7.850;2022-10-31T19:01:18;11.70;99.90
4215;DHT22;2121;48.062;7.850;2022-10-31T19:03:45;11.60;99.90
4215;DHT22;2121;48.062;7.850;2022-10-31T19:06:11;11.60;99.90
4215;DHT22;2121;48.062;7.850;2022-10-31T19:08:37;11.50;99.90